Sacramento, California
Current Conditions -  °F | °C
As of 4:53 AM on Thursday 23 Oct 2014 (Local Time) from KSAC Reporting Station
Clear Clear  
Wind Chill: 15°   Ceiling: Unl
Heat Index: 15°   Visibility: 10mi
Dew Point: 12°   Wind: 3mph
Humidity: 83%   Direction: 120°ESE
Pressure: 30.01"   Gusts: NA
Location:  38.58°N, 121.49°W
Report Text: KSAC 231153Z AUTO 12003KT 10SM CLR 15/12 A3001 RMK AO2 SLP161 T01500122 10178 20144 58001
Loading
Personal Weather Stations






























Interactive Weather Map New forecast layout! Learn more

10-Day Weather Forecast

Advertisements
Track Severe Weather on mobile